sensor_id;sensor_type;location;lat;lon;timestamp;pressure;altitude;pressure_sealevel;temperature;humidity
25232;BME280;13176;51.140;6.290;2023-08-24T00:01:44;101061.63;;;24.36;57.60
25232;BME280;13176;51.140;6.290;2023-08-24T00:04:10;101002.91;;;23.96;57.95
25232;BME280;13176;51.140;6.290;2023-08-24T00:06:37;101086.19;;;24.41;58.58
25232;BME280;13176;51.140;6.290;2023-08-24T00:09:04;101069.38;;;24.27;58.19
25232;BME280;13176;51.140;6.290;2023-08-24T00:11:31;101098.97;;;24.36;58.63
25232;BME280;13176;51.140;6.290;2023-08-24T00:13:58;101071.19;;;23.98;59.59
25232;BME280;13176;51.140;6.290;2023-08-24T00:16:24;101067.69;;;23.98;59.56
25232;BME280;13176;51.140;6.290;2023-08-24T00:18:51;101062.13;;;24.15;58.79
25232;BME280;13176;51.140;6.290;2023-08-24T00:21:18;101058.91;;;24.10;58.85
25232;BME280;13176;51.140;6.290;2023-08-24T00:23:49;101071.44;;;24.35;58.51
25232;BME280;13176;51.140;6.290;2023-08-24T00:26:16;101030.31;;;24.12;58.50
25232;BME280;13176;51.140;6.290;2023-08-24T00:28:46;100987.13;;;23.93;58.41
25232;BME280;13176;51.140;6.290;2023-08-24T00:31:15;101057.94;;;24.25;58.71
25232;BME280;13176;51.140;6.290;2023-08-24T00:33:42;101017.03;;;23.98;59.05
25232;BME280;13176;51.140;6.290;2023-08-24T00:36:08;100998.53;;;23.67;59.74
25232;BME280;13176;51.140;6.290;2023-08-24T00:38:35;101050.53;;;24.02;59.31
25232;BME280;13176;51.140;6.290;2023-08-24T00:41:01;101021.22;;;23.88;59.68
25232;BME280;13176;51.140;6.290;2023-08-24T00:43:28;100956.66;;;23.55;59.47
25232;BME280;13176;51.140;6.290;2023-08-24T00:45:56;101028.34;;;24.01;59.69
25232;BME280;13176;51.140;6.290;2023-08-24T00:48:26;101003.69;;;23.98;59.44
25232;BME280;13176;51.140;6.290;2023-08-24T00:50:56;100949.88;;;23.63;59.00
25232;BME280;13176;51.140;6.290;2023-08-24T00:53:24;101022.16;;;24.01;59.12
25232;BME280;13176;51.140;6.290;2023-08-24T00:55:51;101020.63;;;23.83;59.83
25232;BME280;13176;51.140;6.290;2023-08-24T00:58:18;101005.00;;;23.49;61.03
25232;BME280;13176;51.140;6.290;2023-08-24T01:00:46;101017.41;;;23.64;61.27
25232;BME280;13176;51.140;6.290;2023-08-24T01:03:12;101048.44;;;23.79;60.39
25232;BME280;13176;51.140;6.290;2023-08-24T01:05:39;101015.47;;;23.52;60.55
25232;BME280;13176;51.140;6.290;2023-08-24T01:08:05;101067.09;;;23.65;61.64
25232;BME280;13176;51.140;6.290;2023-08-24T01:13:55;100944.59;;;23.06;61.88
25232;BME280;13176;51.140;6.290;2023-08-24T01:16:29;101038.31;;;23.70;61.46
25232;BME280;13176;51.140;6.290;2023-08-24T01:18:58;101031.47;;;23.66;60.88
25232;BME280;13176;51.140;6.290;2023-08-24T01:21:26;101018.59;;;23.58;60.77
25232;BME280;13176;51.140;6.290;2023-08-24T01:24:17;101031.25;;;23.69;60.59
25232;BME280;13176;51.140;6.290;2023-08-24T01:26:47;101018.88;;;23.68;60.34
25232;BME280;13176;51.140;6.290;2023-08-24T01:29:14;100940.09;;;23.22;60.57
25232;BME280;13176;51.140;6.290;2023-08-24T01:31:41;100908.19;;;23.07;60.78
25232;BME280;13176;51.140;6.290;2023-08-24T01:34:08;100990.84;;;23.48;61.54
25232;BME280;13176;51.140;6.290;2023-08-24T01:36:35;101010.34;;;23.63;61.68
25232;BME280;13176;51.140;6.290;2023-08-24T01:39:31;101017.56;;;23.61;62.49
25232;BME280;13176;51.140;6.290;2023-08-24T01:42:04;100967.69;;;23.35;62.24
25232;BME280;13176;51.140;6.290;2023-08-24T01:44:35;101010.91;;;23.54;62.63
25232;BME280;13176;51.140;6.290;2023-08-24T01:47:04;100998.53;;;23.53;62.54
25232;BME280;13176;51.140;6.290;2023-08-24T01:49:33;101005.56;;;23.54;62.03
25232;BME280;13176;51.140;6.290;2023-08-24T01:52:01;100955.50;;;23.31;62.16
25232;BME280;13176;51.140;6.290;2023-08-24T01:54:29;100982.91;;;23.47;62.28
25232;BME280;13176;51.140;6.290;2023-08-24T01:56:55;100987.88;;;23.53;62.01
25232;BME280;13176;51.140;6.290;2023-08-24T01:59:21;100960.38;;;23.38;62.15
25232;BME280;13176;51.140;6.290;2023-08-24T02:01:48;100823.63;;;22.54;62.53
25232;BME280;13176;51.140;6.290;2023-08-24T02:04:14;100967.50;;;23.38;62.80
25232;BME280;13176;51.140;6.290;2023-08-24T02:06:41;100986.91;;;23.40;63.14
25232;BME280;13176;51.140;6.290;2023-08-24T02:09:07;100820.75;;;22.43;62.83
25232;BME280;13176;51.140;6.290;2023-08-24T02:11:34;100992.44;;;23.23;63.01
25232;BME280;13176;51.140;6.290;2023-08-24T02:14:00;100990.53;;;22.96;64.29
25232;BME280;13176;51.140;6.290;2023-08-24T02:16:27;100971.22;;;22.63;64.88
25232;BME280;13176;51.140;6.290;2023-08-24T02:18:53;100988.22;;;22.60;66.53
25232;BME280;13176;51.140;6.290;2023-08-24T02:21:20;100925.47;;;22.11;66.99
25232;BME280;13176;51.140;6.290;2023-08-24T02:23:46;101013.78;;;22.78;66.52
25232;BME280;13176;51.140;6.290;2023-08-24T02:26:13;101026.06;;;23.10;65.64
25232;BME280;13176;51.140;6.290;2023-08-24T02:28:39;100970.00;;;22.98;65.28
25232;BME280;13176;51.140;6.290;2023-08-24T02:31:06;100960.00;;;23.01;64.95
25232;BME280;13176;51.140;6.290;2023-08-24T02:33:32;100992.91;;;23.29;64.85
25232;BME280;13176;51.140;6.290;2023-08-24T02:35:59;100972.72;;;23.25;64.31
25232;BME280;13176;51.140;6.290;2023-08-24T02:38:26;101000.81;;;23.45;64.46
25232;BME280;13176;51.140;6.290;2023-08-24T02:41:11;100943.59;;;23.22;64.91
25232;BME280;13176;51.140;6.290;2023-08-24T02:43:39;100951.88;;;23.32;64.88
25232;BME280;13176;51.140;6.290;2023-08-24T02:46:09;100944.47;;;23.37;65.11
25232;BME280;13176;51.140;6.290;2023-08-24T02:48:36;100873.84;;;22.88;64.48
25232;BME280;13176;51.140;6.290;2023-08-24T02:51:04;100924.06;;;22.94;65.59
25232;BME280;13176;51.140;6.290;2023-08-24T02:53:31;100990.69;;;23.08;66.62
25232;BME280;13176;51.140;6.290;2023-08-24T02:55:58;100979.75;;;22.83;67.36
25232;BME280;13176;51.140;6.290;2023-08-24T02:58:24;100987.09;;;22.64;68.70
25232;BME280;13176;51.140;6.290;2023-08-24T03:00:51;100976.09;;;22.70;68.32
25232;BME280;13176;51.140;6.290;2023-08-24T03:03:17;100956.94;;;22.79;67.99
25232;BME280;13176;51.140;6.290;2023-08-24T03:05:57;100964.91;;;23.09;67.19
25232;BME280;13176;51.140;6.290;2023-08-24T03:08:24;100947.75;;;22.99;67.03
25232;BME280;13176;51.140;6.290;2023-08-24T03:10:51;100943.78;;;23.06;66.49
25232;BME280;13176;51.140;6.290;2023-08-24T03:13:18;101011.47;;;23.45;66.69
25232;BME280;13176;51.140;6.290;2023-08-24T03:15:44;101016.59;;;23.34;67.15
25232;BME280;13176;51.140;6.290;2023-08-24T03:18:12;100987.75;;;22.97;68.10
25232;BME280;13176;51.140;6.290;2023-08-24T03:20:40;100934.03;;;22.47;68.50
25232;BME280;13176;51.140;6.290;2023-08-24T03:23:06;101045.72;;;22.78;69.93
25232;BME280;13176;51.140;6.290;2023-08-24T03:25:37;100916.50;;;21.83;71.31
25232;BME280;13176;51.140;6.290;2023-08-24T03:28:04;101000.94;;;22.24;72.17
25232;BME280;13176;51.140;6.290;2023-08-24T03:30:31;100956.03;;;22.04;72.59
25232;BME280;13176;51.140;6.290;2023-08-24T03:32:58;101036.25;;;22.88;72.23
25232;BME280;13176;51.140;6.290;2023-08-24T03:35:25;100974.97;;;22.74;72.09
25232;BME280;13176;51.140;6.290;2023-08-24T03:37:52;101006.91;;;23.04;72.61
25232;BME280;13176;51.140;6.290;2023-08-24T03:40:18;100982.84;;;23.05;72.05
25232;BME280;13176;51.140;6.290;2023-08-24T03:42:45;100989.59;;;23.26;71.47
25232;BME280;13176;51.140;6.290;2023-08-24T03:45:11;100981.78;;;23.23;71.80
25232;BME280;13176;51.140;6.290;2023-08-24T03:47:38;100838.63;;;22.41;72.26
25232;BME280;13176;51.140;6.290;2023-08-24T03:50:05;100965.97;;;23.20;72.13
25232;BME280;13176;51.140;6.290;2023-08-24T03:52:31;100945.63;;;23.19;72.44
25232;BME280;13176;51.140;6.290;2023-08-24T03:55:01;100880.88;;;22.75;71.21
25232;BME280;13176;51.140;6.290;2023-08-24T03:57:27;100884.66;;;22.71;71.27
25232;BME280;13176;51.140;6.290;2023-08-24T03:59:54;100928.63;;;23.06;73.18
25232;BME280;13176;51.140;6.290;2023-08-24T04:02:20;100850.44;;;22.51;72.71
25232;BME280;13176;51.140;6.290;2023-08-24T04:04:47;100851.66;;;22.30;73.03
25232;BME280;13176;51.140;6.290;2023-08-24T04:07:13;100800.19;;;21.73;73.43
25232;BME280;13176;51.140;6.290;2023-08-24T04:09:40;100879.69;;;22.06;77.44
25232;BME280;13176;51.140;6.290;2023-08-24T04:12:08;100885.03;;;21.91;78.29
25232;BME280;13176;51.140;6.290;2023-08-24T04:14:34;100929.84;;;22.12;79.61
25232;BME280;13176;51.140;6.290;2023-08-24T04:17:00;100902.50;;;22.10;79.71
25232;BME280;13176;51.140;6.290;2023-08-24T04:19:27;100745.72;;;21.35;79.94
25232;BME280;13176;51.140;6.290;2023-08-24T04:21:53;100856.88;;;22.02;80.38
25232;BME280;13176;51.140;6.290;2023-08-24T04:24:20;100756.13;;;21.69;79.17
25232;BME280;13176;51.140;6.290;2023-08-24T04:26:46;100848.88;;;22.47;78.84
25232;BME280;13176;51.140;6.290;2023-08-24T04:29:12;100780.31;;;22.23;78.17
25232;BME280;13176;51.140;6.290;2023-08-24T04:31:39;100850.28;;;22.82;77.94
25232;BME280;13176;51.140;6.290;2023-08-24T04:34:07;100842.00;;;22.87;76.91
25232;BME280;13176;51.140;6.290;2023-08-24T04:36:34;100825.63;;;22.93;76.94
25232;BME280;13176;51.140;6.290;2023-08-24T04:39:00;100798.16;;;22.78;75.43
25232;BME280;13176;51.140;6.290;2023-08-24T04:41:27;100826.88;;;23.01;74.48
25232;BME280;13176;51.140;6.290;2023-08-24T04:43:54;100850.28;;;23.10;73.65
25232;BME280;13176;51.140;6.290;2023-08-24T04:46:21;100826.09;;;22.71;73.80
25232;BME280;13176;51.140;6.290;2023-08-24T04:48:47;100871.38;;;22.85;74.10
25232;BME280;13176;51.140;6.290;2023-08-24T04:51:14;100868.88;;;22.68;74.68
25232;BME280;13176;51.140;6.290;2023-08-24T04:53:40;100805.50;;;22.31;74.26
25232;BME280;13176;51.140;6.290;2023-08-24T04:56:07;100745.59;;;21.96;73.91
25232;BME280;13176;51.140;6.290;2023-08-24T04:58:33;100862.78;;;22.66;74.19
25232;BME280;13176;51.140;6.290;2023-08-24T05:01:01;100848.34;;;22.56;73.49
25232;BME280;13176;51.140;6.290;2023-08-24T05:03:30;100834.47;;;22.51;73.16
25232;BME280;13176;51.140;6.290;2023-08-24T05:05:56;100840.06;;;22.61;73.24
25232;BME280;13176;51.140;6.290;2023-08-24T05:08:23;100854.97;;;22.63;74.13
25232;BME280;13176;51.140;6.290;2023-08-24T05:10:49;100824.38;;;22.42;73.51
25232;BME280;13176;51.140;6.290;2023-08-24T05:13:16;100839.19;;;22.60;74.27
25232;BME280;13176;51.140;6.290;2023-08-24T05:15:42;100821.75;;;22.56;74.45
25232;BME280;13176;51.140;6.290;2023-08-24T05:18:08;100800.31;;;22.44;74.73
25232;BME280;13176;51.140;6.290;2023-08-24T05:20:35;100862.41;;;22.72;74.88
25232;BME280;13176;51.140;6.290;2023-08-24T05:23:01;100832.56;;;22.53;75.19
25232;BME280;13176;51.140;6.290;2023-08-24T05:25:28;100797.19;;;22.37;75.68
25232;BME280;13176;51.140;6.290;2023-08-24T05:27:54;100828.94;;;22.68;75.03
25232;BME280;13176;51.140;6.290;2023-08-24T05:30:21;100833.50;;;22.66;75.60
25232;BME280;13176;51.140;6.290;2023-08-24T05:32:47;100702.41;;;21.93;76.36
25232;BME280;13176;51.140;6.290;2023-08-24T05:35:14;100860.63;;;22.87;76.26
25232;BME280;13176;51.140;6.290;2023-08-24T05:37:40;100803.84;;;22.58;75.59
25232;BME280;13176;51.140;6.290;2023-08-24T05:40:07;100807.84;;;22.51;76.79
25232;BME280;13176;51.140;6.290;2023-08-24T05:42:34;100745.44;;;22.27;76.85
25232;BME280;13176;51.140;6.290;2023-08-24T05:45:02;100824.56;;;22.95;76.14
25232;BME280;13176;51.140;6.290;2023-08-24T05:47:29;100783.34;;;22.74;76.41
25232;BME280;13176;51.140;6.290;2023-08-24T05:49:55;100786.19;;;22.85;75.48
25232;BME280;13176;51.140;6.290;2023-08-24T05:52:22;100798.06;;;22.94;75.33
25232;BME280;13176;51.140;6.290;2023-08-24T05:54:48;100786.38;;;22.82;74.99
25232;BME280;13176;51.140;6.290;2023-08-24T05:57:15;100824.53;;;23.11;74.64
25232;BME280;13176;51.140;6.290;2023-08-24T05:59:42;100797.38;;;23.04;74.04
25232;BME280;13176;51.140;6.290;2023-08-24T06:02:08;100740.19;;;22.83;73.07
25232;BME280;13176;51.140;6.290;2023-08-24T06:04:35;100798.34;;;23.17;72.59
25232;BME280;13176;51.140;6.290;2023-08-24T06:07:01;100793.03;;;23.17;72.58
25232;BME280;13176;51.140;6.290;2023-08-24T06:09:29;100808.25;;;23.29;71.65
25232;BME280;13176;51.140;6.290;2023-08-24T06:11:55;100771.53;;;23.20;72.59
25232;BME280;13176;51.140;6.290;2023-08-24T06:14:21;100810.66;;;23.46;71.09
25232;BME280;13176;51.140;6.290;2023-08-24T06:16:48;100791.25;;;23.44;70.65
25232;BME280;13176;51.140;6.290;2023-08-24T06:19:15;100767.78;;;23.36;69.68
25232;BME280;13176;51.140;6.290;2023-08-24T06:21:41;100756.69;;;23.30;70.02
25232;BME280;13176;51.140;6.290;2023-08-24T06:24:08;100762.34;;;23.38;69.60
25232;BME280;13176;51.140;6.290;2023-08-24T06:26:35;100747.09;;;23.40;69.00
25232;BME280;13176;51.140;6.290;2023-08-24T06:29:01;100776.19;;;23.57;69.53
25232;BME280;13176;51.140;6.290;2023-08-24T06:31:28;100756.59;;;23.44;69.11
25232;BME280;13176;51.140;6.290;2023-08-24T06:33:56;100777.06;;;23.70;68.55
25232;BME280;13176;51.140;6.290;2023-08-24T06:36:23;100781.34;;;23.72;67.84
25232;BME280;13176;51.140;6.290;2023-08-24T06:38:49;100766.63;;;23.67;67.57
25232;BME280;13176;51.140;6.290;2023-08-24T06:41:15;100754.47;;;23.63;67.85
25232;BME280;13176;51.140;6.290;2023-08-24T06:43:42;100758.13;;;23.74;67.55
25232;BME280;13176;51.140;6.290;2023-08-24T06:46:08;100708.81;;;23.55;68.17
25232;BME280;13176;51.140;6.290;2023-08-24T06:48:35;100771.44;;;24.01;67.47
25232;BME280;13176;51.140;6.290;2023-08-24T06:51:03;100752.44;;;23.93;67.44
25232;BME280;13176;51.140;6.290;2023-08-24T06:53:29;100746.00;;;23.83;69.47
25232;BME280;13176;51.140;6.290;2023-08-24T06:55:56;100735.53;;;23.80;69.81
25232;BME280;13176;51.140;6.290;2023-08-24T06:58:23;100773.69;;;24.07;69.50
25232;BME280;13176;51.140;6.290;2023-08-24T07:00:50;100776.13;;;24.10;69.75
25232;BME280;13176;51.140;6.290;2023-08-24T07:03:17;100722.75;;;23.85;70.03
25232;BME280;13176;51.140;6.290;2023-08-24T07:05:45;100750.63;;;24.06;68.82
25232;BME280;13176;51.140;6.290;2023-08-24T07:08:12;100742.88;;;24.03;69.13
25232;BME280;13176;51.140;6.290;2023-08-24T07:10:39;100753.53;;;24.15;66.06
25232;BME280;13176;51.140;6.290;2023-08-24T07:13:07;100740.63;;;24.22;66.93
25232;BME280;13176;51.140;6.290;2023-08-24T07:15:33;100760.19;;;24.34;68.65
25232;BME280;13176;51.140;6.290;2023-08-24T07:18:02;100736.38;;;24.31;69.40
25232;BME280;13176;51.140;6.290;2023-08-24T07:20:29;100682.91;;;24.08;66.97
25232;BME280;13176;51.140;6.290;2023-08-24T07:22:55;100726.44;;;24.46;67.62
25232;BME280;13176;51.140;6.290;2023-08-24T07:25:24;100738.50;;;24.64;67.89
25232;BME280;13176;51.140;6.290;2023-08-24T07:27:50;100717.50;;;24.59;66.54
25232;BME280;13176;51.140;6.290;2023-08-24T07:30:17;100730.41;;;24.65;67.22
25232;BME280;13176;51.140;6.290;2023-08-24T07:32:59;100719.19;;;24.60;67.13
25232;BME280;13176;51.140;6.290;2023-08-24T07:35:25;100711.94;;;24.62;65.71
25232;BME280;13176;51.140;6.290;2023-08-24T07:37:53;100725.59;;;24.70;66.22
25232;BME280;13176;51.140;6.290;2023-08-24T07:40:19;100755.56;;;24.86;66.85
25232;BME280;13176;51.140;6.290;2023-08-24T07:42:50;100721.53;;;24.65;66.32
25232;BME280;13176;51.140;6.290;2023-08-24T07:45:20;100754.19;;;24.93;67.23
25232;BME280;13176;51.140;6.290;2023-08-24T07:47:46;100748.81;;;24.93;67.07
25232;BME280;13176;51.140;6.290;2023-08-24T07:50:13;100752.03;;;24.98;65.52
25232;BME280;13176;51.140;6.290;2023-08-24T07:52:40;100769.31;;;25.18;66.52
25232;BME280;13176;51.140;6.290;2023-08-24T07:55:07;100768.75;;;25.25;65.37
25232;BME280;13176;51.140;6.290;2023-08-24T07:57:34;100746.03;;;25.20;64.94
25232;BME280;13176;51.140;6.290;2023-08-24T08:00:02;100774.56;;;25.43;65.26
25232;BME280;13176;51.140;6.290;2023-08-24T08:02:32;100766.25;;;25.47;66.55
25232;BME280;13176;51.140;6.290;2023-08-24T08:04:59;100760.41;;;25.53;65.86
25232;BME280;13176;51.140;6.290;2023-08-24T08:07:26;100750.97;;;25.60;67.02
25232;BME280;13176;51.140;6.290;2023-08-24T08:09:52;100749.69;;;25.65;66.90
25232;BME280;13176;51.140;6.290;2023-08-24T08:12:19;100735.44;;;25.65;65.26
25232;BME280;13176;51.140;6.290;2023-08-24T08:14:45;100682.63;;;25.45;66.42
25232;BME280;13176;51.140;6.290;2023-08-24T08:17:12;100702.16;;;25.69;65.58
25232;BME280;13176;51.140;6.290;2023-08-24T08:19:38;100707.34;;;25.83;65.39
25232;BME280;13176;51.140;6.290;2023-08-24T08:22:06;100700.53;;;25.90;65.74
25232;BME280;13176;51.140;6.290;2023-08-24T08:24:35;100706.53;;;25.93;66.21
25232;BME280;13176;51.140;6.290;2023-08-24T08:27:02;100733.97;;;26.19;64.16
25232;BME280;13176;51.140;6.290;2023-08-24T08:29:28;100702.09;;;26.16;65.02
25232;BME280;13176;51.140;6.290;2023-08-24T08:31:56;100708.41;;;26.26;62.88
25232;BME280;13176;51.140;6.290;2023-08-24T08:34:22;100709.63;;;26.33;64.31
25232;BME280;13176;51.140;6.290;2023-08-24T08:36:49;100708.16;;;26.29;62.41
25232;BME280;13176;51.140;6.290;2023-08-24T08:39:16;100728.94;;;26.49;63.34
25232;BME280;13176;51.140;6.290;2023-08-24T08:41:45;100700.38;;;26.37;62.60
25232;BME280;13176;51.140;6.290;2023-08-24T08:44:13;100727.19;;;26.59;63.75
25232;BME280;13176;51.140;6.290;2023-08-24T08:46:41;100683.25;;;26.39;62.42
25232;BME280;13176;51.140;6.290;2023-08-24T08:49:10;100715.53;;;26.70;62.04
25232;BME280;13176;51.140;6.290;2023-08-24T08:51:39;100678.28;;;26.57;61.03
25232;BME280;13176;51.140;6.290;2023-08-24T08:54:05;100688.84;;;26.80;60.75
25232;BME280;13176;51.140;6.290;2023-08-24T08:56:32;100658.94;;;26.75;61.86
25232;BME280;13176;51.140;6.290;2023-08-24T08:59:00;100623.47;;;26.61;61.67
25232;BME280;13176;51.140;6.290;2023-08-24T09:01:27;100662.38;;;26.97;61.40
25232;BME280;13176;51.140;6.290;2023-08-24T09:03:54;100547.06;;;26.35;61.67
25232;BME280;13176;51.140;6.290;2023-08-24T09:06:23;100614.94;;;26.88;61.30
25232;BME280;13176;51.140;6.290;2023-08-24T09:08:49;100618.03;;;27.04;60.81
25232;BME280;13176;51.140;6.290;2023-08-24T09:11:19;100604.88;;;27.01;59.82
25232;BME280;13176;51.140;6.290;2023-08-24T09:13:46;100608.78;;;27.08;58.74
25232;BME280;13176;51.140;6.290;2023-08-24T09:16:13;100632.44;;;27.35;59.57
25232;BME280;13176;51.140;6.290;2023-08-24T09:18:45;100615.06;;;27.29;60.10
25232;BME280;13176;51.140;6.290;2023-08-24T09:21:13;100616.19;;;27.47;59.34
25232;BME280;13176;51.140;6.290;2023-08-24T09:23:44;100595.69;;;27.46;59.10
25232;BME280;13176;51.140;6.290;2023-08-24T09:26:14;100586.88;;;27.55;58.52
25232;BME280;13176;51.140;6.290;2023-08-24T09:28:43;100569.09;;;27.54;58.73
25232;BME280;13176;51.140;6.290;2023-08-24T09:31:12;100574.28;;;27.67;57.81
25232;BME280;13176;51.140;6.290;2023-08-24T09:33:42;100603.78;;;27.87;57.78
25232;BME280;13176;51.140;6.290;2023-08-24T09:36:13;100578.44;;;27.80;57.40
25232;BME280;13176;51.140;6.290;2023-08-24T09:38:49;100615.72;;;28.03;57.33
25232;BME280;13176;51.140;6.290;2023-08-24T09:41:16;100585.19;;;27.95;56.88
25232;BME280;13176;51.140;6.290;2023-08-24T09:43:43;100619.19;;;28.15;56.24
25232;BME280;13176;51.140;6.290;2023-08-24T09:46:09;100610.66;;;28.10;57.87
25232;BME280;13176;51.140;6.290;2023-08-24T09:48:35;100626.25;;;28.16;56.61
25232;BME280;13176;51.140;6.290;2023-08-24T09:51:04;100644.19;;;28.36;56.02
25232;BME280;13176;51.140;6.290;2023-08-24T09:53:37;100638.22;;;28.32;54.81
25232;BME280;13176;51.140;6.290;2023-08-24T09:56:05;100642.84;;;28.51;54.99
25232;BME280;13176;51.140;6.290;2023-08-24T09:58:34;100629.56;;;28.59;56.25
25232;BME280;13176;51.140;6.290;2023-08-24T10:01:01;100623.31;;;28.49;55.31
25232;BME280;13176;51.140;6.290;2023-08-24T10:03:30;100629.31;;;28.62;55.76
25232;BME280;13176;51.140;6.290;2023-08-24T10:05:59;100607.50;;;28.55;55.00
25232;BME280;13176;51.140;6.290;2023-08-24T10:08:41;100632.31;;;28.78;54.06
25232;BME280;13176;51.140;6.290;2023-08-24T10:11:10;100633.31;;;28.77;54.71
25232;BME280;13176;51.140;6.290;2023-08-24T10:13:44;100655.44;;;28.90;55.82
25232;BME280;13176;51.140;6.290;2023-08-24T10:16:15;100659.81;;;28.91;54.88
25232;BME280;13176;51.140;6.290;2023-08-24T10:18:43;100631.28;;;28.69;53.80
25232;BME280;13176;51.140;6.290;2023-08-24T10:21:10;100670.75;;;28.99;54.73
25232;BME280;13176;51.140;6.290;2023-08-24T10:23:37;100653.34;;;28.93;54.72
25232;BME280;13176;51.140;6.290;2023-08-24T10:26:07;100670.03;;;29.06;55.76
25232;BME280;13176;51.140;6.290;2023-08-24T10:28:34;100666.25;;;29.09;54.46
25232;BME280;13176;51.140;6.290;2023-08-24T10:31:02;100661.13;;;29.06;54.58
25232;BME280;13176;51.140;6.290;2023-08-24T10:33:29;100622.72;;;28.85;55.42
25232;BME280;13176;51.140;6.290;2023-08-24T10:35:57;100661.72;;;29.18;55.71
25232;BME280;13176;51.140;6.290;2023-08-24T10:38:29;100628.00;;;29.14;56.29
25232;BME280;13176;51.140;6.290;2023-08-24T10:41:02;100598.59;;;29.04;54.25
25232;BME280;13176;51.140;6.290;2023-08-24T10:43:48;100604.25;;;29.10;53.88
25232;BME280;13176;51.140;6.290;2023-08-24T10:46:16;100636.22;;;29.32;53.28
25232;BME280;13176;51.140;6.290;2023-08-24T10:51:21;100649.31;;;29.46;52.93
25232;BME280;13176;51.140;6.290;2023-08-24T10:53:56;100652.16;;;29.44;52.80
25232;BME280;13176;51.140;6.290;2023-08-24T10:56:38;100667.31;;;29.45;53.04
25232;BME280;13176;51.140;6.290;2023-08-24T10:59:13;100622.34;;;29.17;55.00
25232;BME280;13176;51.140;6.290;2023-08-24T11:04:20;100652.22;;;29.14;53.06
25232;BME280;13176;51.140;6.290;2023-08-24T11:06:53;100692.59;;;29.24;53.91
25232;BME280;13176;51.140;6.290;2023-08-24T11:09:21;100697.38;;;29.20;55.03
25232;BME280;13176;51.140;6.290;2023-08-24T11:11:59;100706.00;;;29.14;54.85
25232;BME280;13176;51.140;6.290;2023-08-24T11:14:26;100656.31;;;28.90;55.09
25232;BME280;13176;51.140;6.290;2023-08-24T11:16:53;100716.66;;;29.25;55.68
25232;BME280;13176;51.140;6.290;2023-08-24T11:19:20;100665.47;;;28.88;56.35
25232;BME280;13176;51.140;6.290;2023-08-24T11:21:47;100686.50;;;29.13;55.68
25232;BME280;13176;51.140;6.290;2023-08-24T11:24:14;100703.03;;;29.17;55.96
25232;BME280;13176;51.140;6.290;2023-08-24T11:26:45;100714.50;;;29.19;56.15
25232;BME280;13176;51.140;6.290;2023-08-24T11:29:13;100652.31;;;28.85;56.59
25232;BME280;13176;51.140;6.290;2023-08-24T11:31:40;100700.06;;;28.72;57.82
25232;BME280;13176;51.140;6.290;2023-08-24T11:34:10;100733.09;;;28.63;57.87
25232;BME280;13176;51.140;6.290;2023-08-24T11:36:47;100727.75;;;28.63;56.34
25232;BME280;13176;51.140;6.290;2023-08-24T11:39:16;100720.84;;;27.99;57.40
25232;BME280;13176;51.140;6.290;2023-08-24T11:41:44;100715.91;;;28.45;57.15
25232;BME280;13176;51.140;6.290;2023-08-24T11:44:11;100689.66;;;28.28;58.50
25232;BME280;13176;51.140;6.290;2023-08-24T11:46:56;100710.50;;;27.63;61.97
25232;BME280;13176;51.140;6.290;2023-08-24T11:49:23;100612.19;;;27.10;63.60
25232;BME280;13176;51.140;6.290;2023-08-24T11:51:50;100632.72;;;26.78;67.38
25232;BME280;13176;51.140;6.290;2023-08-24T11:54:20;100683.38;;;26.70;70.04
25232;BME280;13176;51.140;6.290;2023-08-24T11:56:49;100682.78;;;26.45;72.39
25232;BME280;13176;51.140;6.290;2023-08-24T11:59:16;100683.34;;;26.27;74.47
25232;BME280;13176;51.140;6.290;2023-08-24T12:01:44;100682.34;;;26.06;77.93
25232;BME280;13176;51.140;6.290;2023-08-24T12:04:11;100562.16;;;25.25;80.08
25232;BME280;13176;51.140;6.290;2023-08-24T12:06:38;100648.34;;;25.50;82.21
25232;BME280;13176;51.140;6.290;2023-08-24T12:09:06;100532.44;;;24.82;85.04
25232;BME280;13176;51.140;6.290;2023-08-24T12:11:36;100637.63;;;25.39;87.54
25232;BME280;13176;51.140;6.290;2023-08-24T12:14:05;100609.91;;;25.74;85.92
25232;BME280;13176;51.140;6.290;2023-08-24T12:16:34;100519.09;;;25.62;84.33
25232;BME280;13176;51.140;6.290;2023-08-24T12:19:01;100470.34;;;25.69;82.89
25232;BME280;13176;51.140;6.290;2023-08-24T12:21:30;100581.25;;;26.64;83.30
25232;BME280;13176;51.140;6.290;2023-08-24T12:23:59;100575.47;;;26.79;82.90
25232;BME280;13176;51.140;6.290;2023-08-24T12:26:26;100582.31;;;26.83;82.71
25232;BME280;13176;51.140;6.290;2023-08-24T12:28:55;100589.44;;;26.94;83.38
25232;BME280;13176;51.140;6.290;2023-08-24T12:31:26;100593.44;;;26.99;84.88
25232;BME280;13176;51.140;6.290;2023-08-24T12:34:06;100584.06;;;27.05;84.91
25232;BME280;13176;51.140;6.290;2023-08-24T12:36:37;100540.09;;;26.96;83.51
25232;BME280;13176;51.140;6.290;2023-08-24T12:39:11;100469.34;;;26.67;84.19
25232;BME280;13176;51.140;6.290;2023-08-24T12:46:25;100547.03;;;27.51;80.57
25232;BME280;13176;51.140;6.290;2023-08-24T12:49:52;100457.94;;;26.86;80.70
25232;BME280;13176;51.140;6.290;2023-08-24T12:56:42;100556.00;;;27.40;82.29
25232;BME280;13176;51.140;6.290;2023-08-24T12:59:15;100475.53;;;26.99;80.45
25232;BME280;13176;51.140;6.290;2023-08-24T13:01:42;100512.19;;;27.30;80.56
25232;BME280;13176;51.140;6.290;2023-08-24T13:04:08;100457.75;;;26.98;79.46
25232;BME280;13176;51.140;6.290;2023-08-24T13:06:35;100527.63;;;27.17;80.59
25232;BME280;13176;51.140;6.290;2023-08-24T13:09:04;100538.47;;;27.36;80.52
25232;BME280;13176;51.140;6.290;2023-08-24T13:11:32;100576.44;;;27.21;78.76
25232;BME280;13176;51.140;6.290;2023-08-24T13:13:58;100547.44;;;26.94;79.77